createdAt,value
2023-04-05T00:00:11.976Z,44.60
2023-04-05T00:03:14.289Z,45.10
2023-04-05T00:06:17.031Z,45.80
2023-04-05T00:09:21.886Z,44.60
2023-04-05T00:12:24.198Z,44.80
2023-04-05T00:15:29.303Z,44.50
2023-04-05T00:18:34.375Z,43.90
2023-04-05T00:21:38.299Z,43.00
2023-04-05T00:24:43.536Z,40.80
2023-04-05T00:27:46.344Z,41.40
2023-04-05T00:30:48.492Z,41.50
2023-04-05T00:33:50.772Z,41.10
2023-04-05T00:36:53.072Z,40.50
2023-04-05T00:39:57.456Z,40.30
2023-04-05T00:42:59.745Z,39.50
2023-04-05T00:46:06.349Z,39.80
2023-04-05T00:49:08.903Z,39.20
2023-04-05T00:52:11.668Z,39.30
2023-04-05T00:55:14.380Z,39.10
2023-04-05T00:58:22.380Z,38.80
2023-04-05T01:01:26.577Z,38.80
2023-04-05T01:04:32.828Z,39.40
2023-04-05T01:07:42.458Z,39.10
2023-04-05T01:10:55.178Z,38.90
2023-04-05T01:14:02.260Z,39.10
2023-04-05T01:17:04.450Z,39.30
2023-04-05T01:20:10.887Z,39.40
2023-04-05T01:23:38.174Z,39.60
2023-04-05T01:26:56.906Z,40.00
2023-04-05T01:30:12.415Z,40.30
2023-04-05T01:33:17.317Z,41.00
2023-04-05T01:37:06.037Z,40.60
2023-04-05T01:40:09.582Z,41.10
2023-04-05T01:43:18.197Z,41.50
2023-04-05T01:46:20.501Z,42.00
2023-04-05T01:49:24.062Z,41.10
2023-04-05T01:52:26.129Z,40.80
2023-04-05T01:55:28.426Z,40.70
2023-04-05T01:58:30.470Z,40.60
2023-04-05T02:01:36.741Z,40.50
2023-04-05T02:04:38.970Z,40.30
2023-04-05T02:07:42.189Z,40.20
2023-04-05T02:10:44.778Z,40.50
2023-04-05T02:13:47.099Z,40.30
2023-04-05T02:16:49.108Z,40.70
2023-04-05T02:19:53.299Z,40.60
2023-04-05T02:22:56.519Z,40.70
2023-04-05T02:25:59.074Z,40.90
2023-04-05T02:29:01.061Z,41.20
2023-04-05T02:32:03.267Z,41.20
2023-04-05T02:35:05.968Z,41.50
2023-04-05T02:38:08.688Z,41.80
2023-04-05T02:41:14.238Z,41.80
2023-04-05T02:44:16.264Z,42.40
2023-04-05T02:47:21.777Z,42.90
2023-04-05T02:50:24.217Z,43.50
2023-04-05T02:53:26.198Z,43.90
2023-04-05T02:56:29.320Z,44.20
2023-04-05T02:59:31.447Z,44.40
2023-04-05T03:02:33.757Z,43.50
2023-04-05T03:05:35.814Z,43.90
2023-04-05T03:08:46.705Z,42.60
2023-04-05T03:11:48.928Z,42.10
2023-04-05T03:14:51.106Z,41.60
2023-04-05T03:17:53.310Z,41.90
2023-04-05T03:20:59.215Z,41.10
2023-04-05T03:24:02.335Z,40.30
2023-04-05T03:27:06.242Z,40.30
2023-04-05T03:30:09.071Z,40.70
2023-04-05T03:33:11.146Z,39.90
2023-04-05T03:36:16.757Z,39.80
2023-04-05T03:39:18.925Z,39.90
2023-04-05T03:42:20.939Z,39.80
2023-04-05T03:45:24.605Z,39.80
2023-04-05T03:48:27.209Z,39.90
2023-04-05T03:51:29.430Z,39.40
2023-04-05T03:54:31.418Z,39.80
2023-04-05T03:57:34.016Z,39.80
2023-04-05T04:00:36.125Z,39.90
2023-04-05T04:03:48.394Z,39.90
2023-04-05T04:06:51.189Z,39.90
2023-04-05T04:09:55.462Z,39.90
2023-04-05T04:12:57.524Z,40.30
2023-04-05T04:16:11.450Z,40.20
2023-04-05T04:19:14.498Z,39.80
2023-04-05T04:22:20.707Z,40.00
2023-04-05T04:25:23.137Z,39.70
2023-04-05T04:28:25.427Z,39.80
2023-04-05T04:31:27.695Z,39.90
2023-04-05T04:34:30.766Z,40.20
2023-04-05T04:37:33.001Z,40.00
2023-04-05T04:40:39.192Z,40.10
2023-04-05T04:43:44.772Z,40.10
2023-04-05T04:46:46.753Z,40.10
2023-04-05T04:49:49.096Z,40.60
2023-04-05T04:52:51.241Z,40.10
2023-04-05T04:55:55.330Z,40.50
2023-04-05T04:58:57.758Z,40.30
2023-04-05T05:01:59.794Z,40.70
2023-04-05T05:05:07.222Z,40.40
2023-04-05T05:08:09.438Z,40.40
2023-04-05T05:11:11.478Z,39.70
2023-04-05T05:14:13.490Z,40.00
2023-04-05T05:17:15.550Z,40.00
2023-04-05T05:20:17.860Z,40.30
2023-04-05T05:23:21.337Z,40.20
2023-04-05T05:26:23.768Z,40.40
2023-04-05T05:29:25.797Z,40.60
2023-04-05T05:32:28.698Z,40.10
2023-04-05T05:35:30.995Z,39.70
2023-04-05T05:38:33.575Z,40.30
2023-04-05T05:41:37.028Z,40.30
2023-04-05T05:44:39.371Z,40.80
2023-04-05T05:47:42.300Z,40.60
2023-04-05T05:50:45.147Z,40.10
2023-04-05T05:53:47.316Z,40.00
2023-04-05T05:56:49.552Z,40.30
2023-04-05T05:59:51.593Z,40.30
2023-04-05T06:02:54.487Z,40.40
2023-04-05T06:05:58.285Z,40.50
2023-04-05T06:09:00.588Z,40.90
2023-04-05T06:12:03.072Z,40.70
2023-04-05T06:15:05.957Z,40.70
2023-04-05T06:18:09.587Z,40.90
2023-04-05T06:21:11.645Z,41.00
2023-04-05T06:24:13.896Z,41.00
2023-04-05T06:27:16.131Z,40.90
2023-04-05T06:30:18.319Z,41.00
2023-04-05T06:33:20.509Z,41.10
2023-04-05T06:36:22.663Z,41.10
2023-04-05T06:39:24.756Z,40.50
2023-04-05T06:42:28.023Z,40.90
2023-04-05T06:45:33.716Z,39.70
2023-04-05T06:48:35.996Z,40.30
2023-04-05T06:51:38.228Z,39.70
2023-04-05T06:54:40.585Z,38.20
2023-04-05T06:58:08.649Z,36.80
2023-04-05T07:01:11.585Z,35.00
2023-04-05T07:04:14.131Z,34.50
2023-04-05T07:07:17.550Z,33.80
2023-04-05T07:10:19.750Z,32.90
2023-04-05T07:13:23.382Z,32.40
2023-04-05T07:16:26.122Z,32.40
2023-04-05T07:19:28.376Z,31.70
2023-04-05T07:22:30.576Z,30.70
2023-04-05T07:25:33.000Z,30.40
2023-04-05T07:28:36.010Z,29.00
2023-04-05T07:31:41.246Z,29.10
2023-04-05T07:34:43.613Z,28.50
2023-04-05T07:37:45.764Z,27.50
2023-04-05T07:40:51.535Z,26.70
2023-04-05T07:43:54.064Z,26.70
2023-04-05T07:46:56.273Z,27.10
2023-04-05T07:49:58.447Z,26.20
2023-04-05T07:53:01.126Z,26.90
2023-04-05T07:56:09.765Z,26.00
2023-04-05T07:59:15.179Z,25.40
2023-04-05T08:02:17.732Z,25.40
2023-04-05T08:05:20.028Z,24.10
2023-04-05T08:08:23.282Z,24.30
2023-04-05T08:11:26.583Z,25.30
2023-04-05T08:14:29.229Z,25.00
2023-04-05T08:17:31.569Z,23.90
2023-04-05T08:20:41.579Z,22.80
2023-04-05T08:23:44.040Z,23.00
2023-04-05T08:26:48.875Z,21.80
2023-04-05T08:29:51.347Z,22.20
2023-04-05T08:32:53.714Z,22.00
2023-04-05T08:35:55.992Z,23.00
2023-04-05T08:38:58.152Z,21.50
2023-04-05T08:42:19.246Z,21.10
2023-04-05T08:45:23.032Z,23.00
2023-04-05T08:48:29.086Z,22.10
2023-04-05T08:51:31.455Z,21.10
2023-04-05T08:54:33.536Z,19.20
2023-04-05T08:57:40.870Z,19.50
2023-04-05T09:00:44.001Z,20.40
2023-04-05T09:03:47.311Z,20.30
2023-04-05T09:06:55.740Z,20.50
2023-04-05T09:10:00.723Z,20.60
2023-04-05T09:13:06.947Z,17.40
2023-04-05T09:16:09.408Z,18.40
2023-04-05T09:19:11.718Z,18.30
2023-04-05T09:22:14.186Z,17.00
2023-04-05T09:25:38.774Z,18.10
2023-04-05T09:28:45.086Z,16.90
2023-04-05T09:32:08.539Z,16.30
2023-04-05T09:35:21.720Z,17.50
2023-04-05T09:38:46.159Z,15.70
2023-04-05T09:42:04.877Z,15.40
2023-04-05T09:45:32.514Z,15.50
2023-04-05T09:48:48.695Z,14.00
2023-04-05T09:51:51.301Z,17.90
2023-04-05T09:54:56.673Z,15.70
2023-04-05T09:57:59.071Z,16.60
2023-04-05T10:01:13.924Z,15.10
2023-04-05T10:04:21.511Z,16.40
2023-04-05T10:07:23.630Z,14.90
2023-04-05T10:10:25.960Z,14.00
2023-04-05T10:13:28.539Z,14.30
2023-04-05T10:16:34.588Z,16.10
2023-04-05T10:19:51.900Z,17.30
2023-04-05T10:22:56.890Z,16.60
2023-04-05T10:26:31.411Z,15.70
2023-04-05T10:29:50.598Z,16.00
2023-04-05T10:33:28.713Z,15.30
2023-04-05T10:37:02.089Z,15.60
2023-04-05T10:40:08.522Z,16.90
2023-04-05T10:43:17.644Z,17.50
2023-04-05T10:46:21.444Z,18.70
2023-04-05T10:49:37.227Z,20.30
2023-04-05T10:52:41.668Z,20.10
2023-04-05T10:55:46.300Z,19.90
2023-04-05T10:58:50.193Z,19.10
2023-04-05T11:01:55.291Z,19.80
2023-04-05T11:05:05.174Z,19.90
2023-04-05T11:08:08.623Z,19.10
2023-04-05T11:11:11.125Z,18.60
2023-04-05T11:14:25.922Z,18.50
2023-04-05T11:17:29.303Z,18.50
2023-04-05T11:20:57.277Z,17.70
2023-04-05T11:24:12.694Z,18.80
2023-04-05T11:27:14.935Z,19.60
2023-04-05T11:30:49.427Z,18.00
2023-04-05T11:33:57.726Z,18.30
2023-04-05T11:37:00.189Z,19.30
2023-04-05T11:40:29.336Z,19.90
2023-04-05T11:43:31.787Z,21.40
2023-04-05T11:46:33.949Z,21.70
2023-04-05T11:49:36.346Z,23.30
2023-04-05T11:52:39.955Z,22.60
2023-04-05T11:55:51.306Z,23.50
2023-04-05T11:58:59.513Z,23.50
2023-04-05T12:02:09.246Z,24.30
2023-04-05T12:05:11.437Z,25.20
2023-04-05T12:08:13.585Z,25.60
2023-04-05T12:11:16.640Z,26.10
2023-04-05T12:14:23.657Z,26.00
2023-04-05T12:17:51.438Z,26.30
2023-04-05T12:20:54.951Z,26.40
2023-04-05T12:23:58.320Z,27.20
2023-04-05T12:27:01.331Z,26.80
2023-04-05T12:30:08.316Z,26.30
2023-04-05T12:33:10.505Z,26.20
2023-04-05T12:36:15.831Z,26.10
2023-04-05T12:39:18.006Z,26.30
2023-04-05T12:42:38.045Z,25.90
2023-04-05T12:45:41.095Z,25.80
2023-04-05T12:48:43.881Z,26.20
2023-04-05T12:51:47.367Z,26.10
2023-04-05T12:54:55.949Z,25.60
2023-04-05T12:58:02.466Z,25.90
2023-04-05T13:01:04.895Z,24.70
2023-04-05T13:04:15.373Z,24.90
2023-04-05T13:07:18.770Z,25.30
2023-04-05T13:10:23.030Z,24.20
2023-04-05T13:13:25.514Z,23.20
2023-04-05T13:16:28.016Z,24.10
2023-04-05T13:19:30.171Z,24.00
2023-04-05T13:22:32.390Z,23.20
2023-04-05T13:25:34.775Z,23.40
2023-04-05T13:28:36.855Z,23.10
2023-04-05T13:31:41.075Z,22.40
2023-04-05T13:34:43.043Z,21.30
2023-04-05T13:37:45.222Z,20.80
2023-04-05T13:40:47.825Z,21.70
2023-04-05T13:43:50.026Z,21.80
2023-04-05T13:46:52.066Z,19.70
2023-04-05T13:49:54.119Z,20.50
2023-04-05T13:52:56.245Z,20.00
2023-04-05T13:55:58.228Z,19.10
2023-04-05T13:59:01.062Z,19.50
2023-04-05T14:02:03.510Z,19.40
2023-04-05T14:05:07.098Z,19.20
2023-04-05T14:08:09.078Z,19.60
2023-04-05T14:11:11.129Z,18.80
2023-04-05T14:14:13.153Z,18.90
2023-04-05T14:17:15.160Z,19.10
2023-04-05T14:20:17.676Z,19.00
2023-04-05T14:23:19.897Z,17.60
2023-04-05T14:26:22.451Z,17.90
2023-04-05T14:29:24.912Z,17.90
2023-04-05T14:32:27.134Z,17.10
2023-04-05T14:35:29.324Z,16.40
2023-04-05T14:38:31.447Z,17.60
2023-04-05T14:41:35.429Z,17.70
2023-04-05T14:44:37.618Z,17.90
2023-04-05T14:47:39.972Z,16.80
2023-04-05T14:50:42.251Z,16.90
2023-04-05T14:53:44.653Z,16.70
2023-04-05T14:56:46.730Z,16.30
2023-04-05T14:59:48.799Z,15.90
2023-04-05T15:02:51.181Z,15.60
2023-04-05T15:05:53.687Z,15.70
2023-04-05T15:08:55.945Z,16.10
2023-04-05T15:11:57.991Z,16.20
2023-04-05T15:15:00.126Z,15.50
2023-04-05T15:18:02.635Z,15.10
2023-04-05T15:21:05.599Z,16.10
2023-04-05T15:24:07.924Z,15.60
2023-04-05T15:27:10.511Z,15.60
2023-04-05T15:30:12.993Z,16.10
2023-04-05T15:33:15.017Z,17.20
2023-04-05T15:36:17.367Z,17.50
2023-04-05T15:39:20.380Z,17.70
2023-04-05T15:42:22.560Z,17.60
2023-04-05T15:45:24.749Z,18.10
2023-04-05T15:48:26.777Z,18.00
2023-04-05T15:51:28.802Z,17.80
2023-04-05T15:54:31.108Z,17.00
2023-04-05T15:57:33.112Z,17.10
2023-04-05T16:00:35.188Z,17.90
2023-04-05T16:03:37.405Z,17.00
2023-04-05T16:06:39.572Z,18.10
2023-04-05T16:09:41.920Z,17.50
2023-04-05T16:12:44.011Z,17.30
2023-04-05T16:15:46.110Z,17.60
2023-04-05T16:18:48.378Z,18.10
2023-04-05T16:21:51.388Z,18.60
2023-04-05T16:24:53.458Z,18.30
2023-04-05T16:27:55.569Z,18.40
2023-04-05T16:30:59.342Z,18.70
2023-04-05T16:34:01.308Z,21.50
2023-04-05T16:37:03.478Z,23.40
2023-04-05T16:40:07.792Z,23.80
2023-04-05T16:43:11.121Z,23.70
2023-04-05T16:46:13.274Z,23.70
2023-04-05T16:49:15.977Z,24.20
2023-04-05T16:52:18.155Z,24.60
2023-04-05T16:55:20.210Z,23.80
2023-04-05T16:58:22.317Z,23.50
2023-04-05T17:01:25.169Z,23.90
2023-04-05T17:04:27.419Z,23.80
2023-04-05T17:07:29.467Z,23.30
2023-04-05T17:10:31.855Z,23.60
2023-04-05T17:13:33.965Z,23.60
2023-04-05T17:16:36.043Z,23.70
2023-04-05T17:19:38.095Z,23.70
2023-04-05T17:22:41.624Z,23.70
2023-04-05T17:25:43.685Z,23.70
2023-04-05T17:28:45.722Z,24.60
2023-04-05T17:31:47.945Z,25.00
2023-04-05T17:34:50.045Z,25.30
2023-04-05T17:37:53.037Z,25.80
2023-04-05T17:40:57.364Z,26.30
2023-04-05T17:43:59.561Z,27.50
2023-04-05T17:47:08.499Z,28.00
2023-04-05T17:50:11.888Z,29.00
2023-04-05T17:53:16.660Z,29.00
2023-04-05T17:56:18.785Z,29.40
2023-04-05T17:59:20.892Z,30.80
2023-04-05T18:02:23.113Z,30.70
2023-04-05T18:05:26.081Z,32.10
2023-04-05T18:08:29.179Z,33.20
2023-04-05T18:11:31.839Z,35.30
2023-04-05T18:14:33.882Z,36.30
2023-04-05T18:17:35.950Z,36.00
2023-04-05T18:20:38.235Z,36.60
2023-04-05T18:23:40.345Z,37.40
2023-04-05T18:26:42.739Z,36.70
2023-04-05T18:29:46.309Z,36.40
2023-04-05T18:32:48.407Z,36.50
2023-04-05T18:35:51.646Z,35.90
2023-04-05T18:38:56.178Z,37.50
2023-04-05T18:41:58.392Z,38.30
2023-04-05T18:45:01.173Z,40.10
2023-04-05T18:48:03.516Z,41.70
2023-04-05T18:51:06.285Z,43.00
2023-04-05T18:54:08.345Z,43.80
2023-04-05T18:57:10.632Z,43.20
2023-04-05T19:00:13.089Z,43.70
2023-04-05T19:03:16.421Z,43.40
2023-04-05T19:06:18.977Z,42.90
2023-04-05T19:09:22.230Z,42.10
2023-04-05T19:12:24.388Z,41.40
2023-04-05T19:15:26.486Z,41.00
2023-04-05T19:18:29.935Z,41.40
2023-04-05T19:21:32.531Z,40.80
2023-04-05T19:24:34.557Z,40.50
2023-04-05T19:27:36.793Z,39.90
2023-04-05T19:30:43.016Z,39.50
2023-04-05T19:33:45.030Z,39.10
2023-04-05T19:36:47.075Z,38.30
2023-04-05T19:39:49.133Z,38.40
2023-04-05T19:42:52.528Z,38.40
2023-04-05T19:46:00.545Z,38.40
2023-04-05T19:49:16.739Z,38.50
2023-04-05T19:52:56.336Z,38.00
2023-04-05T19:55:58.322Z,38.00
2023-04-05T19:59:03.206Z,37.80
2023-04-05T20:02:19.192Z,37.60
2023-04-05T20:05:42.225Z,37.40
2023-04-05T20:08:46.245Z,37.50
2023-04-05T20:11:58.127Z,37.50
2023-04-05T20:15:00.266Z,37.90
2023-04-05T20:18:02.589Z,37.60
2023-04-05T20:21:04.861Z,38.10
2023-04-05T20:24:13.751Z,38.20
2023-04-05T20:27:15.880Z,38.60
2023-04-05T20:30:18.230Z,38.50
2023-04-05T20:33:47.307Z,38.80
2023-04-05T20:36:54.877Z,39.10
2023-04-05T20:39:56.959Z,39.90
2023-04-05T20:42:59.036Z,40.70
2023-04-05T20:46:03.951Z,40.60
2023-04-05T20:49:06.807Z,40.90
2023-04-05T20:52:11.115Z,41.00
2023-04-05T20:55:13.243Z,40.70
2023-04-05T20:58:16.139Z,40.10
2023-04-05T21:01:18.344Z,40.30
2023-04-05T21:04:20.739Z,39.40
2023-04-05T21:07:22.854Z,39.30
2023-04-05T21:10:26.716Z,39.90
2023-04-05T21:13:29.433Z,38.70
2023-04-05T21:16:31.599Z,38.80
2023-04-05T21:19:33.696Z,38.80
2023-04-05T21:22:35.770Z,38.60
2023-04-05T21:25:37.814Z,38.60
2023-04-05T21:28:39.861Z,37.80
2023-04-05T21:31:42.450Z,38.20
2023-04-05T21:34:47.793Z,37.90
2023-04-05T21:37:50.879Z,37.30
2023-04-05T21:40:56.899Z,37.20
2023-04-05T21:43:58.999Z,36.60
2023-04-05T21:47:02.367Z,36.90
2023-04-05T21:50:06.144Z,36.80
2023-04-05T21:53:09.797Z,37.20
2023-04-05T21:56:11.892Z,37.60
2023-04-05T21:59:13.931Z,38.00
2023-04-05T22:02:16.202Z,38.30
2023-04-05T22:08:23.440Z,40.00
2023-04-05T22:11:26.334Z,40.00
2023-04-05T22:14:28.988Z,40.10
2023-04-05T22:17:31.143Z,41.00
2023-04-05T22:20:33.349Z,41.10
2023-04-05T22:23:35.670Z,41.10
2023-04-05T22:26:39.512Z,41.60
2023-04-05T22:29:41.621Z,41.40
2023-04-05T22:32:43.825Z,41.60
2023-04-05T22:35:46.208Z,42.30
2023-04-05T22:38:48.448Z,45.50
2023-04-05T22:41:50.494Z,44.60
2023-04-05T22:44:52.597Z,46.00
2023-04-05T22:47:55.705Z,46.00
2023-04-05T22:50:58.095Z,47.80
2023-04-05T22:54:00.247Z,47.80
2023-04-05T22:57:02.382Z,49.30
2023-04-05T23:00:06.199Z,49.10
2023-04-05T23:03:08.343Z,50.30
2023-04-05T23:06:10.499Z,51.40
2023-04-05T23:09:12.910Z,52.70
2023-04-05T23:12:15.084Z,53.00
2023-04-05T23:15:18.185Z,52.30
2023-04-05T23:18:22.872Z,52.00
2023-04-05T23:21:25.108Z,52.60
2023-04-05T23:24:27.284Z,52.50
2023-04-05T23:27:29.562Z,53.10
2023-04-05T23:30:31.633Z,54.60
2023-04-05T23:33:33.703Z,55.40
2023-04-05T23:36:35.883Z,55.30
2023-04-05T23:39:37.901Z,55.40
2023-04-05T23:42:39.991Z,55.40
2023-04-05T23:45:42.257Z,55.00
2023-04-05T23:48:44.377Z,54.40
2023-04-05T23:51:46.649Z,54.50
2023-04-05T23:54:48.660Z,55.00
2023-04-05T23:57:52.095Z,54.90
